Historique des mesures à Cassis (13260), France
Quotidien Résumé Avril 11, 2017 Unités:  US    Métrique   Métrique/US
« Précédent (Jour)
Suivant (Jour) »
Quotidien Hebdomadaire Mensuel Annuel Période au choix
  Maximum: Minimum: Moyenne:
Température: 32 °F 57.6 °F 61.9 °F
Point de rosée: 32 °F 42.4 °F 46.9 °F
Humidité: Humidity % 41 % 56 %
Vitesse du vent: WindSpeedKMH mph 0.0 mph 6.6 mph
Rafales: WindSpeedGustKMH mph - -
Vent:- - South
Pression: 0 in 29.9 in -
Précipitations: 0 in    
Historical Graphs
 
 
Mesures pour : Avril 11, 2017
Heure Temperature Point de rosée Pression Vent Vitesse du vent Rafales Humidité Pluie (par heure) Conditions
32 °F 32 °F 0 in Calm     Humidity % 0 in SoftwareType W/m2
00:11 57.9 °F 49.3 °F 30 in SE 2.1 mph 2.1 mph 73 % 0 in open2300-1.11 W/m2
01:11 58.1 °F 48.7 °F 30 in Calm     71 % 0 in open2300-1.11 W/m2
02:11 57.7 °F 49.5 °F 30 in Calm   1.4 mph 74 % 0 in open2300-1.11 W/m2
03:11 61 °F 49.6 °F 29.9 in ENE 4.0 mph 4.7 mph 66 % 0 in open2300-1.11 W/m2
04:11 61 °F 49.3 °F 29.9 in NW 4.7 mph 14.8 mph 65 % 0 in open2300-1.11 W/m2
05:11 60.4 °F 48.7 °F 29.9 in NNW 10.8 mph 10.8 mph 65 % 0 in open2300-1.11 W/m2
06:11 60.1 °F 47.8 °F 29.9 in NNW 1.8 mph 3.5 mph 64 % 0 in open2300-1.11 W/m2
07:11 57.9 °F 48.2 °F 30 in NNW 2.1 mph 2.1 mph 70 % 0 in open2300-1.11 W/m2
08:11 57.6 °F 48.9 °F 30 in South 2.9 mph 2.9 mph 73 % 0 in open2300-1.11 W/m2
09:11 59.5 °F 52 °F 30 in ESE 1.4 mph 1.8 mph 76 % 0 in open2300-1.11 W/m2
10:11 60.8 °F 53.6 °F 30 in Calm   1.4 mph 77 % 0 in open2300-1.11 W/m2
11:11 64.9 °F 56.5 °F 30 in Calm   3.5 mph 74 % 0 in open2300-1.11 W/m2
12:11 69.6 °F 51.6 °F 30 in North 13.4 mph 21.6 mph 53 % 0 in open2300-1.11 W/m2
13:11 70.9 °F 50.7 °F 30 in NE 6.1 mph 27.7 mph 49 % 0 in open2300-1.11 W/m2
14:11 69.6 °F 45.5 °F 29.9 in North 24.5 mph 40.2 mph 42 % 0 in open2300-1.11 W/m2
15:11 69.3 °F 45.1 °F 29.9 in NNW 15.8 mph 21.9 mph 42 % 0 in open2300-1.11 W/m2
16:11 67.1 °F 42.6 °F 29.9 in NW 15.1 mph 17.2 mph 41 % 0 in open2300-1.11 W/m2
17:11 68 °F 44.6 °F 29.9 in North 18.7 mph 19.1 mph 43 % 0 in open2300-1.11 W/m2
18:11 66 °F 43.3 °F 29.9 in North 9.0 mph 9.0 mph 44 % 0 in open2300-1.11 W/m2
19:11 66.6 °F 43.3 °F 29.9 in NNE 9.0 mph 9.0 mph 43 % 0 in open2300-1.11 W/m2
20:11 65.5 °F 43 °F 29.9 in NNW 7.6 mph 7.6 mph 44 % 0 in open2300-1.11 W/m2
21:11 64 °F 42.6 °F 29.9 in NW 15.4 mph 15.4 mph 46 % 0 in open2300-1.11 W/m2
22:11 62.4 °F 42.4 °F 29.9 in Calm   2.1 mph 48 % 0 in open2300-1.11 W/m2
23:11 60.6 °F 42.4 °F 30 in Calm     51 % 0 in open2300-1.11 W/m2
Observations météo à CASSIS
WU-History script by Weather Underground - 1 mb